Time;durP1;ratioP1;P1;durP2;ratioP2;P2;SDS_P1;SDS_P2;PMS_P1;PMS_P2;Temp;Humidity;BMP_temperature;BMP_pressure;BME280_temperature;BME280_humidity;BME280_pressure;Samples;Min_cycle;Max_cycle;Signal;HPM_P1;HPM_P2
2021/07/21 00:01:33;;;;;;;8.03;5.20;;;14.60;99.90;;;;;;4115018;28;20229;-76
2021/07/21 00:03:35;;;;;;;7.20;4.70;;;14.60;99.90;;;;;;4115832;28;20209;-76
2021/07/21 00:05:39;;;;;;;7.70;4.83;;;14.60;99.90;;;;;;4110291;28;20384;-75
2021/07/21 00:07:41;;;;;;;6.60;4.80;;;14.60;99.90;;;;;;4116869;28;20311;-77
2021/07/21 00:09:43;;;;;;;7.97;4.60;;;14.60;99.90;;;;;;4120553;28;20431;-75
2021/07/21 00:14:13;;;;;;;10.00;5.00;;;14.50;99.90;;;;;;4120236;28;20571;-76
2021/07/21 00:16:17;;;;;;;7.07;4.60;;;14.50;99.90;;;;;;4114218;28;20301;-76
2021/07/21 00:18:21;;;;;;;7.60;4.53;;;14.60;99.90;;;;;;4112670;28;20221;-76
2021/07/21 00:20:23;;;;;;;7.47;4.60;;;14.40;99.90;;;;;;4126962;28;20373;-77
2021/07/21 00:22:27;;;;;;;9.20;4.93;;;14.40;99.90;;;;;;4127727;28;20764;-76
2021/07/21 00:24:29;;;;;;;7.30;4.43;;;14.40;99.90;;;;;;4130359;28;20693;-77
2021/07/21 00:26:30;;;;;;;7.80;4.80;;;14.40;99.90;;;;;;4125700;28;20229;-76
2021/07/21 00:28:34;;;;;;;6.70;4.40;;;14.30;99.90;;;;;;4126344;28;20208;-76
2021/07/21 00:30:36;;;;;;;5.97;4.20;;;14.30;99.90;;;;;;4121647;28;20301;-76
2021/07/21 00:32:38;;;;;;;5.63;4.23;;;14.30;99.90;;;;;;4114921;28;20221;-77
2021/07/21 00:34:40;;;;;;;7.20;5.50;;;14.30;99.90;;;;;;4114577;28;20213;-77
2021/07/21 00:36:42;;;;;;;7.00;5.00;;;14.20;99.90;;;;;;4117113;28;20264;-77
2021/07/21 00:38:45;;;;;;;8.03;4.80;;;14.20;99.90;;;;;;4128669;28;20208;-76
2021/07/21 00:40:48;;;;;;;13.20;5.00;;;14.20;99.90;;;;;;4120200;28;20323;-76
2021/07/21 00:42:50;;;;;;;7.00;4.73;;;14.10;99.90;;;;;;4121320;28;20217;-77
2021/07/21 00:44:53;;;;;;;6.97;4.80;;;14.10;99.90;;;;;;4114424;28;20246;-77
2021/07/21 00:46:54;;;;;;;7.73;4.47;;;14.10;99.90;;;;;;4115482;28;20229;-76
2021/07/21 00:48:56;;;;;;;7.83;4.77;;;14.10;99.90;;;;;;4115058;28;20216;-76
2021/07/21 00:53:02;;;;;;;6.97;5.33;;;14.00;99.90;;;;;;4148075;28;20232;-82
2021/07/21 00:55:06;;;;;;;6.30;4.80;;;14.00;99.90;;;;;;4141999;28;20214;-81
2021/07/21 00:57:10;;;;;;;9.87;5.27;;;14.00;99.90;;;;;;4149888;28;20215;-81
2021/07/21 00:59:11;;;;;;;8.30;4.83;;;14.00;99.90;;;;;;4148957;28;20694;-82
2021/07/21 01:01:13;;;;;;;7.50;4.80;;;13.90;99.90;;;;;;4146565;28;20767;-81
2021/07/21 01:03:15;;;;;;;7.17;4.53;;;13.90;99.90;;;;;;4130783;28;20213;-84
2021/07/21 01:05:20;;;;;;;10.73;5.20;;;13.90;99.90;;;;;;4116487;28;20655;-84
2021/07/21 01:07:22;;;;;;;7.37;5.20;;;13.90;99.90;;;;;;4134519;28;20462;-83
2021/07/21 01:09:24;;;;;;;8.27;4.90;;;13.80;99.90;;;;;;4132931;28;20208;-83
2021/07/21 01:11:34;;;;;;;7.70;5.23;;;13.80;99.90;;;;;;4136450;28;20286;-84
2021/07/21 01:13:47;;;;;;;9.30;5.30;;;13.80;99.90;;;;;;4132022;28;20200;-83
2021/07/21 01:15:53;;;;;;;9.03;5.20;;;13.70;99.90;;;;;;4142486;28;20274;-84
2021/07/21 01:18:02;;;;;;;7.83;5.03;;;13.70;99.90;;;;;;4133779;28;20240;-84
2021/07/21 01:20:31;;;;;;;8.67;5.40;;;13.70;99.90;;;;;;4131393;28;20262;-81
2021/07/21 01:22:36;;;;;;;9.77;6.07;;;13.70;99.90;;;;;;4150436;28;20223;-81
2021/07/21 01:24:52;;;;;;;10.70;5.70;;;13.60;99.90;;;;;;4150063;28;20274;-84
2021/07/21 01:27:17;;;;;;;9.33;5.57;;;13.60;99.90;;;;;;4137373;28;20232;-84
2021/07/21 01:29:22;;;;;;;9.53;5.30;;;13.60;99.90;;;;;;4130186;28;20667;-83
2021/07/21 01:31:28;;;;;;;8.67;5.13;;;13.60;99.90;;;;;;4133058;28;20239;-83
2021/07/21 01:33:32;;;;;;;7.20;5.20;;;13.50;99.90;;;;;;4134860;28;20561;-84
2021/07/21 01:35:37;;;;;;;8.50;5.50;;;13.50;99.90;;;;;;4139068;28;20213;-84
2021/07/21 01:37:44;;;;;;;10.87;5.30;;;13.50;99.90;;;;;;4136512;28;20213;-84
2021/07/21 01:39:49;;;;;;;9.57;5.60;;;13.40;99.90;;;;;;4150136;28;20406;-82
2021/07/21 01:41:56;;;;;;;8.13;5.53;;;13.50;99.90;;;;;;4140733;28;20235;-84
2021/07/21 01:44:03;;;;;;;8.63;5.60;;;13.70;99.90;;;;;;4133041;28;20240;-84
2021/07/21 01:46:06;;;;;;;11.20;5.47;;;13.40;99.90;;;;;;4121606;28;20556;-83
2021/07/21 01:48:09;;;;;;;10.57;5.43;;;13.40;99.90;;;;;;4131996;28;20309;-84
2021/07/21 01:50:13;;;;;;;8.57;5.43;;;13.40;99.90;;;;;;4142489;28;20215;-84
2021/07/21 01:52:16;;;;;;;8.13;5.40;;;13.40;99.90;;;;;;4133103;28;20731;-84
2021/07/21 01:54:19;;;;;;;7.33;5.13;;;13.30;99.90;;;;;;4129230;28;20211;-84
2021/07/21 01:56:22;;;;;;;9.40;6.00;;;13.30;99.90;;;;;;4131238;28;20223;-83
2021/07/21 01:58:26;;;;;;;9.37;5.87;;;13.30;99.90;;;;;;4133588;28;20570;-83
2021/07/21 02:00:29;;;;;;;8.50;5.63;;;13.20;99.90;;;;;;4135726;28;20569;-84
2021/07/21 02:02:32;;;;;;;8.07;5.07;;;13.20;99.90;;;;;;4130553;28;20678;-82
2021/07/21 02:04:39;;;;;;;8.70;5.87;;;13.20;99.90;;;;;;4127905;28;20211;-83
2021/07/21 02:06:41;;;;;;;9.60;5.70;;;13.20;99.90;;;;;;4135325;28;20627;-84
2021/07/21 02:08:44;;;;;;;9.90;5.70;;;13.10;99.90;;;;;;4134276;28;20215;-84
2021/07/21 02:10:47;;;;;;;11.63;5.70;;;13.10;99.90;;;;;;4130892;28;20271;-84
2021/07/21 02:12:52;;;;;;;8.10;5.60;;;13.10;99.90;;;;;;4137780;28;20242;-84
2021/07/21 02:14:54;;;;;;;10.93;5.80;;;13.10;99.90;;;;;;4134463;28;20228;-84
2021/07/21 02:16:59;;;;;;;10.50;5.50;;;13.00;99.90;;;;;;4134738;28;20606;-84
2021/07/21 02:19:03;;;;;;;8.20;5.87;;;13.00;99.90;;;;;;4131715;28;20223;-84
2021/07/21 02:21:07;;;;;;;9.23;6.10;;;13.00;99.90;;;;;;4134726;28;20219;-84
2021/07/21 02:23:09;;;;;;;9.43;5.77;;;13.00;99.90;;;;;;4134025;28;20211;-84
2021/07/21 02:25:11;;;;;;;7.83;5.63;;;13.00;99.90;;;;;;4133683;28;20572;-84
2021/07/21 02:27:13;;;;;;;9.93;6.43;;;12.90;99.90;;;;;;4125095;28;20235;-84
2021/07/21 02:29:15;;;;;;;12.23;6.53;;;12.90;99.90;;;;;;4116921;28;20214;-84
2021/07/21 02:31:25;;;;;;;9.27;6.40;;;12.90;99.90;;;;;;4130708;28;20243;-83
2021/07/21 02:33:32;;;;;;;9.53;7.00;;;12.90;99.90;;;;;;4134048;28;20688;-84
2021/07/21 02:35:34;;;;;;;11.03;6.70;;;12.90;99.90;;;;;;4141918;28;20236;-84
2021/07/21 02:37:35;;;;;;;9.97;6.30;;;12.90;99.90;;;;;;4126476;28;20571;-84
2021/07/21 02:39:37;;;;;;;11.70;6.80;;;12.80;99.90;;;;;;4132715;28;20215;-84
2021/07/21 02:41:42;;;;;;;11.27;6.67;;;12.90;99.90;;;;;;4132504;28;20274;-84
2021/07/21 02:43:44;;;;;;;12.27;6.63;;;12.80;99.90;;;;;;4134111;28;20617;-84
2021/07/21 02:45:46;;;;;;;11.53;7.03;;;12.80;99.90;;;;;;4129674;28;20220;-83
2021/07/21 02:47:48;;;;;;;11.23;6.50;;;12.80;99.90;;;;;;4132736;28;20246;-84
2021/07/21 02:49:51;;;;;;;9.80;6.90;;;12.70;99.90;;;;;;4132717;28;20223;-84
2021/07/21 02:51:57;;;;;;;11.37;6.70;;;12.70;99.90;;;;;;4132097;28;20247;-83
2021/07/21 02:54:08;;;;;;;10.70;6.93;;;12.70;99.90;;;;;;4134041;28;20210;-84
2021/07/21 02:56:15;;;;;;;11.27;6.93;;;12.70;99.90;;;;;;4126360;28;20661;-84
2021/07/21 02:58:25;;;;;;;11.47;7.57;;;12.70;99.90;;;;;;4128767;28;20612;-84
2021/07/21 03:00:29;;;;;;;11.03;7.47;;;12.70;99.90;;;;;;4133419;28;20734;-83
2021/07/21 03:02:33;;;;;;;11.13;6.87;;;12.70;99.90;;;;;;4130972;28;20234;-83
2021/07/21 03:04:38;;;;;;;11.03;7.30;;;12.60;99.90;;;;;;4135930;28;20261;-84
2021/07/21 03:06:42;;;;;;;12.37;7.27;;;12.60;99.90;;;;;;4135001;28;20635;-83
2021/07/21 03:08:45;;;;;;;12.80;7.57;;;12.60;99.90;;;;;;4134530;28;20234;-83
2021/07/21 03:10:47;;;;;;;11.20;7.13;;;12.60;99.90;;;;;;4131184;28;20224;-83
2021/07/21 03:12:53;;;;;;;10.10;7.17;;;12.60;99.90;;;;;;4134138;28;20227;-84
2021/07/21 03:14:56;;;;;;;10.97;7.33;;;12.50;99.90;;;;;;4140266;28;20211;-84
2021/07/21 03:17:02;;;;;;;13.50;7.07;;;12.60;99.90;;;;;;4139631;28;20233;-84
2021/07/21 03:19:06;;;;;;;10.60;7.27;;;12.60;99.90;;;;;;4133447;28;20216;-83
2021/07/21 03:21:10;;;;;;;12.50;7.37;;;12.60;99.90;;;;;;4126929;28;20219;-83
2021/07/21 03:23:14;;;;;;;9.03;6.50;;;12.50;99.90;;;;;;4136940;28;20216;-83
2021/07/21 03:25:16;;;;;;;11.10;7.60;;;12.50;99.90;;;;;;4144319;28;20207;-83
2021/07/21 03:27:20;;;;;;;9.77;7.13;;;12.50;99.90;;;;;;4140768;28;20293;-83
2021/07/21 03:29:22;;;;;;;10.43;6.80;;;12.50;99.90;;;;;;4132132;28;20216;-83
2021/07/21 03:31:25;;;;;;;11.03;7.37;;;12.50;99.90;;;;;;4125884;28;20243;-84
2021/07/21 03:33:28;;;;;;;10.47;7.40;;;12.50;99.90;;;;;;4135996;28;20218;-84
2021/07/21 03:35:33;;;;;;;10.23;7.00;;;12.40;99.90;;;;;;4135177;28;20230;-83
2021/07/21 03:37:36;;;;;;;13.87;7.27;;;12.40;99.90;;;;;;4132608;28;20211;-84
2021/07/21 03:39:40;;;;;;;9.97;7.10;;;12.40;99.90;;;;;;4128544;28;20685;-84
2021/07/21 03:41:43;;;;;;;10.97;7.30;;;12.40;99.90;;;;;;4133987;28;20290;-84
2021/07/21 03:43:45;;;;;;;11.63;7.03;;;12.40;99.90;;;;;;4134661;28;20262;-83
2021/07/21 03:45:47;;;;;;;10.73;7.37;;;12.40;99.90;;;;;;4139016;28;20657;-84
2021/07/21 03:47:49;;;;;;;12.30;6.73;;;12.40;99.90;;;;;;4133023;28;20233;-84
2021/07/21 03:49:50;;;;;;;11.97;6.97;;;12.40;99.90;;;;;;4118194;28;20735;-84
2021/07/21 03:51:52;;;;;;;11.90;7.00;;;12.40;99.90;;;;;;4135159;28;20247;-84
2021/07/21 03:53:54;;;;;;;10.07;6.67;;;12.50;99.90;;;;;;4134670;28;20218;-84
2021/07/21 03:55:57;;;;;;;11.90;7.13;;;12.50;99.90;;;;;;4133964;28;20263;-84
2021/07/21 03:57:59;;;;;;;12.00;7.63;;;12.50;99.90;;;;;;4129291;28;20218;-83
2021/07/21 04:00:01;;;;;;;11.57;6.80;;;12.60;99.90;;;;;;4134994;28;20223;-84
2021/07/21 04:02:03;;;;;;;11.20;7.23;;;12.60;99.90;;;;;;4136780;28;20258;-83
2021/07/21 04:04:06;;;;;;;11.20;7.63;;;12.60;99.90;;;;;;4132835;28;20279;-84
2021/07/21 04:06:09;;;;;;;13.53;6.90;;;12.60;99.90;;;;;;4121893;28;20588;-84
2021/07/21 04:08:11;;;;;;;10.57;7.03;;;12.60;99.90;;;;;;4116543;28;20301;-83
2021/07/21 04:10:13;;;;;;;11.13;7.93;;;12.70;99.90;;;;;;4131074;28;20629;-84
2021/07/21 04:12:18;;;;;;;10.83;6.87;;;12.70;99.90;;;;;;4141173;28;20231;-83
2021/07/21 04:14:20;;;;;;;11.50;7.00;;;12.70;99.90;;;;;;4131300;28;20208;-84
2021/07/21 04:16:22;;;;;;;11.27;7.60;;;12.80;99.90;;;;;;4129394;28;20281;-84
2021/07/21 04:18:24;;;;;;;9.83;7.00;;;12.70;99.90;;;;;;4145479;28;20203;-84
2021/07/21 04:20:27;;;;;;;9.27;7.00;;;12.70;99.90;;;;;;4147469;28;20222;-84
2021/07/21 04:22:29;;;;;;;10.97;6.80;;;12.80;99.90;;;;;;4137309;28;20235;-83
2021/07/21 04:24:32;;;;;;;12.83;7.60;;;12.80;99.90;;;;;;4126576;28;20674;-84
2021/07/21 04:26:34;;;;;;;11.00;7.53;;;12.80;99.90;;;;;;4131113;28;20258;-84
2021/07/21 04:28:38;;;;;;;14.27;7.77;;;12.90;99.90;;;;;;4133914;28;20711;-83
2021/07/21 04:30:40;;;;;;;12.13;7.50;;;12.90;99.90;;;;;;4140149;28;20207;-84
2021/07/21 04:32:42;;;;;;;11.00;7.37;;;12.90;99.90;;;;;;4131912;28;20235;-83
2021/07/21 04:34:45;;;;;;;11.10;6.80;;;12.90;99.90;;;;;;4117420;28;20212;-84
2021/07/21 04:36:47;;;;;;;12.27;7.03;;;13.00;99.90;;;;;;4128806;28;20267;-83
2021/07/21 04:38:50;;;;;;;11.20;6.97;;;13.00;99.90;;;;;;4132944;28;20208;-84
2021/07/21 04:40:53;;;;;;;12.47;8.07;;;13.10;99.90;;;;;;4140550;28;20228;-84
2021/07/21 04:42:55;;;;;;;12.07;7.53;;;13.10;99.90;;;;;;4121733;28;20216;-84
2021/07/21 04:44:58;;;;;;;11.10;6.73;;;13.20;99.90;;;;;;4117889;28;20259;-83
2021/07/21 04:47:01;;;;;;;11.97;7.67;;;13.10;99.90;;;;;;4128462;28;20215;-84
2021/07/21 04:49:03;;;;;;;10.73;7.40;;;13.20;99.90;;;;;;4131586;28;20322;-84
2021/07/21 04:51:05;;;;;;;12.27;7.27;;;13.20;99.90;;;;;;4140803;28;20223;-84
2021/07/21 04:53:10;;;;;;;10.43;6.93;;;13.30;99.90;;;;;;4118773;28;20221;-83
2021/07/21 04:55:14;;;;;;;11.37;7.20;;;13.30;99.90;;;;;;4116667;28;20217;-84
2021/07/21 04:57:18;;;;;;;9.93;7.30;;;13.30;99.90;;;;;;4131918;28;20620;-83
2021/07/21 04:59:20;;;;;;;13.23;7.50;;;13.40;99.90;;;;;;4142511;28;20211;-84
2021/07/21 05:01:26;;;;;;;11.70;6.90;;;13.40;99.90;;;;;;4134427;28;20822;-84
2021/07/21 05:03:27;;;;;;;14.00;6.87;;;13.40;99.90;;;;;;4134343;28;20208;-84
2021/07/21 05:05:29;;;;;;;9.73;6.53;;;13.50;99.90;;;;;;4132169;28;20269;-84
2021/07/21 05:07:31;;;;;;;11.33;7.13;;;13.50;99.90;;;;;;4133363;28;20620;-84
2021/07/21 05:09:33;;;;;;;11.60;7.40;;;13.70;99.90;;;;;;4121534;28;20283;-82
2021/07/21 05:11:34;;;;;;;10.53;7.80;;;13.60;99.90;;;;;;4139465;28;20231;-84
2021/07/21 05:13:40;;;;;;;9.60;6.63;;;13.70;99.90;;;;;;4141579;28;20743;-84
2021/07/21 05:15:45;;;;;;;10.90;6.97;;;13.60;99.90;;;;;;4131182;28;20205;-84
2021/07/21 05:17:48;;;;;;;11.17;7.17;;;13.70;99.90;;;;;;4121113;28;20208;-84
2021/07/21 05:19:49;;;;;;;12.63;6.80;;;13.70;99.90;;;;;;4117770;28;20690;-84
2021/07/21 05:21:52;;;;;;;10.17;7.13;;;13.70;99.90;;;;;;4130320;28;20228;-84
2021/07/21 05:23:55;;;;;;;10.70;7.43;;;13.80;99.90;;;;;;4123802;28;20212;-84
2021/07/21 05:25:57;;;;;;;10.87;6.77;;;13.90;99.90;;;;;;4130829;28;20216;-84
2021/07/21 05:27:58;;;;;;;13.23;7.50;;;13.80;99.90;;;;;;4115328;28;20686;-84
2021/07/21 05:30:00;;;;;;;9.20;6.70;;;13.90;99.90;;;;;;4121618;28;20613;-84
2021/07/21 05:32:02;;;;;;;12.30;6.77;;;14.00;99.90;;;;;;4134026;28;20275;-84
2021/07/21 05:34:05;;;;;;;9.80;6.93;;;14.00;99.90;;;;;;4129101;28;20213;-84
2021/07/21 05:36:07;;;;;;;11.70;7.07;;;14.10;99.90;;;;;;4124362;28;20220;-84
2021/07/21 05:38:09;;;;;;;10.77;7.43;;;14.10;99.90;;;;;;4131119;28;20343;-84
2021/07/21 05:40:11;;;;;;;10.53;6.63;;;14.20;99.90;;;;;;4136642;28;20262;-84
2021/07/21 05:42:13;;;;;;;12.90;7.17;;;14.20;99.90;;;;;;4130511;28;20255;-84
2021/07/21 05:44:15;;;;;;;10.77;6.67;;;14.20;99.90;;;;;;4130746;28;20204;-84
2021/07/21 05:46:17;;;;;;;10.27;7.47;;;14.30;99.90;;;;;;4134195;28;20583;-84
2021/07/21 05:48:19;;;;;;;9.53;6.50;;;14.30;99.90;;;;;;4134232;28;20232;-84
2021/07/21 05:50:22;;;;;;;11.33;7.07;;;14.40;99.90;;;;;;4140345;28;20202;-84
2021/07/21 05:52:24;;;;;;;11.30;6.80;;;14.40;99.90;;;;;;4149270;28;20279;-84
2021/07/21 05:54:25;;;;;;;9.77;7.07;;;14.50;99.90;;;;;;4128955;28;20267;-84
2021/07/21 05:56:29;;;;;;;10.63;7.17;;;14.80;99.90;;;;;;4134319;28;20224;-84
2021/07/21 05:58:31;;;;;;;11.20;7.70;;;14.50;99.90;;;;;;4133011;28;20420;-84
2021/07/21 06:00:33;;;;;;;11.17;7.50;;;14.60;99.90;;;;;;4133865;28;20627;-84
2021/07/21 06:02:34;;;;;;;10.90;7.30;;;14.60;99.90;;;;;;4120366;28;20233;-84
2021/07/21 06:04:36;;;;;;;10.83;6.90;;;14.60;99.90;;;;;;4127802;28;20217;-82
2021/07/21 06:06:39;;;;;;;11.20;7.13;;;14.70;99.90;;;;;;4134275;28;20263;-84
2021/07/21 06:08:41;;;;;;;12.17;7.50;;;14.80;99.90;;;;;;4133134;28;20233;-84
2021/07/21 06:10:42;;;;;;;13.27;7.07;;;14.80;99.90;;;;;;4138228;28;20212;-82
2021/07/21 06:12:44;;;;;;;8.37;6.30;;;14.90;99.90;;;;;;4149802;28;20286;-82
2021/07/21 06:14:46;;;;;;;11.40;7.03;;;14.90;99.90;;;;;;4148161;28;20629;-82
2021/07/21 06:16:48;;;;;;;12.03;7.27;;;15.30;99.90;;;;;;4134138;28;20737;-82
2021/07/21 06:18:50;;;;;;;9.70;7.20;;;15.00;99.90;;;;;;4131349;28;20271;-84
2021/07/21 06:20:52;;;;;;;11.03;7.67;;;15.10;99.90;;;;;;4135805;28;20201;-84
2021/07/21 06:22:55;;;;;;;11.13;7.63;;;15.20;99.90;;;;;;4150255;28;20268;-84
2021/07/21 06:24:56;;;;;;;12.10;7.30;;;15.20;99.90;;;;;;4138909;28;20223;-82
2021/07/21 06:26:59;;;;;;;15.17;6.97;;;15.30;99.90;;;;;;4134130;28;20222;-82
2021/07/21 06:29:01;;;;;;;13.87;7.43;;;15.40;99.90;;;;;;4128967;28;20773;-82
2021/07/21 06:31:02;;;;;;;12.50;7.83;;;15.40;99.90;;;;;;4137398;28;20216;-82
2021/07/21 06:33:04;;;;;;;11.97;7.23;;;15.50;99.90;;;;;;4133323;28;20218;-84
2021/07/21 06:35:07;;;;;;;11.90;7.57;;;15.50;99.90;;;;;;4132967;28;20215;-82
2021/07/21 06:37:09;;;;;;;12.47;7.30;;;15.60;99.90;;;;;;4133113;28;20280;-82
2021/07/21 06:39:12;;;;;;;11.80;7.53;;;15.60;99.90;;;;;;4121309;28;20211;-81
2021/07/21 06:41:14;;;;;;;12.03;7.37;;;15.70;99.90;;;;;;4136277;28;20231;-82
2021/07/21 06:43:16;;;;;;;11.67;7.30;;;15.70;99.90;;;;;;4133768;28;20209;-81
2021/07/21 06:45:19;;;;;;;11.03;7.40;;;15.80;99.90;;;;;;4133178;28;20214;-83
2021/07/21 06:47:21;;;;;;;9.93;7.10;;;15.90;99.90;;;;;;4132441;28;20276;-82
2021/07/21 06:49:23;;;;;;;12.90;7.90;;;16.00;99.90;;;;;;4131724;28;20232;-81
2021/07/21 06:51:25;;;;;;;11.10;7.50;;;16.00;99.90;;;;;;4176339;23;20232;-79
2021/07/21 06:53:30;;;;;;;10.47;7.43;;;16.00;99.90;;;;;;4134721;28;20220;-77
2021/07/21 06:55:33;;;;;;;11.27;7.37;;;16.10;99.90;;;;;;4140447;28;20242;-77
2021/07/21 06:57:34;;;;;;;12.40;7.30;;;16.20;99.90;;;;;;4123387;28;20230;-77
2021/07/21 06:59:39;;;;;;;12.17;7.97;;;16.20;99.90;;;;;;4136134;28;20210;-77
2021/07/21 07:01:40;;;;;;;12.10;7.57;;;16.30;99.90;;;;;;4133837;28;20228;-77
2021/07/21 07:03:42;;;;;;;12.77;7.57;;;16.40;99.90;;;;;;4129098;28;20269;-76
2021/07/21 07:05:44;;;;;;;13.00;8.20;;;16.50;99.90;;;;;;4101417;29;20280;-78
2021/07/21 07:07:45;;;;;;;10.70;7.60;;;16.60;99.90;;;;;;4101141;29;20311;-77
2021/07/21 07:09:47;;;;;;;11.70;7.30;;;16.70;99.90;;;;;;4101607;28;20673;-77
2021/07/21 07:11:51;;;;;;;15.23;7.20;;;16.80;99.90;;;;;;4124905;28;20245;-77
2021/07/21 07:13:52;;;;;;;12.40;7.40;;;16.80;99.90;;;;;;4101565;28;20214;-76
2021/07/21 07:15:55;;;;;;;10.93;6.47;;;16.90;99.90;;;;;;4100647;29;20633;-77
2021/07/21 07:17:57;;;;;;;12.50;7.30;;;17.00;99.90;;;;;;4101233;29;20213;-76
2021/07/21 07:19:58;;;;;;;11.60;7.77;;;17.10;99.90;;;;;;4123480;28;20263;-76
2021/07/21 07:22:00;;;;;;;12.10;7.23;;;17.20;99.90;;;;;;4117467;28;20261;-77
2021/07/21 07:24:02;;;;;;;13.10;8.10;;;17.30;99.90;;;;;;4100193;29;20630;-78
2021/07/21 07:26:04;;;;;;;11.53;7.13;;;17.40;99.90;;;;;;4100922;29;20269;-77
2021/07/21 07:28:08;;;;;;;10.00;6.83;;;17.50;99.90;;;;;;4114637;28;20267;-77
2021/07/21 07:30:14;;;;;;;13.37;7.40;;;17.60;99.90;;;;;;4121711;28;20677;-77
2021/07/21 07:32:15;;;;;;;13.43;7.63;;;17.70;99.90;;;;;;4119022;28;20228;-78
2021/07/21 07:34:17;;;;;;;11.83;7.60;;;17.80;99.90;;;;;;4124148;28;20660;-77
2021/07/21 07:36:19;;;;;;;12.23;6.97;;;18.00;99.90;;;;;;4138324;28;20208;-77
2021/07/21 07:38:21;;;;;;;12.23;6.87;;;18.10;99.90;;;;;;4121637;28;20241;-76
2021/07/21 07:40:23;;;;;;;11.67;7.70;;;18.20;99.90;;;;;;4121665;28;20250;-78
2021/07/21 07:42:25;;;;;;;11.00;7.40;;;18.30;99.90;;;;;;4135176;28;20742;-78
2021/07/21 07:44:28;;;;;;;13.37;7.33;;;18.40;99.90;;;;;;4129121;28;20231;-76
2021/07/21 07:46:30;;;;;;;13.20;7.60;;;18.50;99.90;;;;;;4122139;28;20237;-77
2021/07/21 07:48:31;;;;;;;14.13;7.40;;;18.60;99.90;;;;;;4131760;28;20257;-76
2021/07/21 07:50:33;;;;;;;13.03;8.20;;;18.70;99.90;;;;;;4132388;28;20216;-77
2021/07/21 07:52:35;;;;;;;14.07;7.50;;;18.90;99.90;;;;;;4125078;28;20238;-77
2021/07/21 07:54:37;;;;;;;13.87;7.77;;;19.00;99.90;;;;;;4123965;28;20212;-75
2021/07/21 07:56:38;;;;;;;13.30;7.43;;;19.10;99.90;;;;;;4125819;28;20246;-76
2021/07/21 07:58:40;;;;;;;13.13;7.47;;;19.10;99.90;;;;;;4123378;28;20277;-77
2021/07/21 08:00:43;;;;;;;14.07;7.47;;;19.30;99.90;;;;;;4116952;28;20518;-76
2021/07/21 08:02:45;;;;;;;12.33;7.23;;;19.40;99.90;;;;;;4115170;28;20645;-77
2021/07/21 08:04:47;;;;;;;13.17;7.67;;;19.50;99.90;;;;;;4104390;28;20224;-77
2021/07/21 08:06:49;;;;;;;11.77;7.37;;;19.60;99.90;;;;;;4104701;28;20212;-76
2021/07/21 08:08:50;;;;;;;12.07;7.33;;;19.60;99.90;;;;;;4122593;28;20254;-77
2021/07/21 08:10:52;;;;;;;11.87;7.60;;;19.60;99.90;;;;;;4130880;28;20266;-76
2021/07/21 08:12:54;;;;;;;12.13;7.50;;;19.60;99.90;;;;;;4113746;28;20241;-76
2021/07/21 08:14:56;;;;;;;10.33;7.00;;;19.60;99.90;;;;;;4100071;29;20217;-77
2021/07/21 08:16:59;;;;;;;11.60;7.10;;;19.70;99.90;;;;;;4102725;28;20205;-76
2021/07/21 08:19:01;;;;;;;11.73;7.50;;;19.80;99.90;;;;;;4123910;28;20208;-77
2021/07/21 08:21:04;;;;;;;12.10;6.90;;;19.90;99.90;;;;;;4130630;28;20827;-77
2021/07/21 08:23:06;;;;;;;12.33;7.33;;;20.00;99.90;;;;;;4113474;28;20233;-78
2021/07/21 08:25:12;;;;;;;11.90;7.57;;;20.10;99.90;;;;;;4100175;29;20247;-77
2021/07/21 08:27:13;;;;;;;12.53;7.50;;;20.20;99.90;;;;;;4099445;29;20759;-77
2021/07/21 08:29:15;;;;;;;11.20;7.10;;;20.30;99.90;;;;;;4100897;29;20648;-77
2021/07/21 08:31:17;;;;;;;11.73;7.07;;;20.50;99.90;;;;;;4124422;28;20207;-78
2021/07/21 08:33:20;;;;;;;11.90;6.97;;;20.60;99.90;;;;;;4128536;28;20239;-77
2021/07/21 08:35:23;;;;;;;10.17;6.63;;;20.80;99.90;;;;;;4124702;28;20268;-78
2021/07/21 08:37:25;;;;;;;10.90;7.17;;;20.80;99.90;;;;;;4128930;28;20594;-78
2021/07/21 08:39:26;;;;;;;11.80;6.83;;;21.00;99.90;;;;;;4133764;28;20574;-76
2021/07/21 08:41:28;;;;;;;12.43;6.90;;;20.90;99.90;;;;;;4114992;28;20217;-78
2021/07/21 08:43:31;;;;;;;11.60;7.40;;;20.80;99.90;;;;;;4116130;28;20213;-78
2021/07/21 08:45:33;;;;;;;9.37;6.70;;;20.80;99.90;;;;;;4100053;28;20826;-77
2021/07/21 08:47:35;;;;;;;13.20;7.60;;;20.80;99.90;;;;;;4118133;28;20217;-77
2021/07/21 08:49:38;;;;;;;10.53;7.17;;;20.70;99.90;;;;;;4126645;28;20755;-77
2021/07/21 08:51:41;;;;;;;10.30;7.13;;;20.70;99.90;;;;;;4130774;28;20234;-77
2021/07/21 08:53:43;;;;;;;8.90;6.30;;;20.70;99.90;;;;;;4126774;28;20217;-78
2021/07/21 08:55:45;;;;;;;10.97;7.17;;;20.70;99.90;;;;;;4129664;28;20212;-78
2021/07/21 08:57:46;;;;;;;13.77;6.93;;;20.70;99.90;;;;;;4122657;28;20274;-77
2021/07/21 08:59:48;;;;;;;11.17;6.70;;;20.70;99.90;;;;;;4130655;28;20211;-78
2021/07/21 09:01:50;;;;;;;10.67;6.53;;;20.80;99.90;;;;;;4127045;28;20286;-78
2021/07/21 09:03:52;;;;;;;10.70;6.70;;;20.80;99.90;;;;;;4120783;28;20215;-76
2021/07/21 09:05:55;;;;;;;12.83;7.00;;;20.90;99.90;;;;;;4120429;28;20258;-78
2021/07/21 09:07:57;;;;;;;9.83;6.37;;;20.90;99.90;;;;;;4129375;28;20462;-78
2021/07/21 09:09:59;;;;;;;12.37;6.73;;;20.90;99.80;;;;;;4123371;28;20294;-77
2021/07/21 09:12:01;;;;;;;10.57;6.93;;;20.90;99.90;;;;;;4134454;28;20279;-77
2021/07/21 09:14:03;;;;;;;10.53;6.57;;;20.90;99.90;;;;;;4118263;28;20224;-77
2021/07/21 09:16:08;;;;;;;10.80;6.87;;;21.00;99.80;;;;;;4118593;28;20210;-77
2021/07/21 09:18:12;;;;;;;12.97;7.23;;;20.90;99.30;;;;;;4124638;28;20209;-77
2021/07/21 09:20:16;;;;;;;12.30;7.20;;;20.80;99.50;;;;;;4132033;28;20211;-76
2021/07/21 09:22:21;;;;;;;11.10;6.83;;;20.80;99.80;;;;;;4122652;28;20249;-77
2021/07/21 09:24:22;;;;;;;10.17;6.20;;;20.80;99.90;;;;;;4106035;28;20261;-77
2021/07/21 09:26:39;;;;;;;10.13;6.03;;;20.80;99.90;;;;;;4120142;28;20208;-77
2021/07/21 09:28:42;;;;;;;11.37;6.40;;;20.90;99.80;;;;;;4132144;28;20208;-77
2021/07/21 09:30:45;;;;;;;10.47;6.27;;;20.90;99.40;;;;;;4123396;28;20720;-77
2021/07/21 09:33:02;;;;;;;10.13;6.63;;;20.90;98.50;;;;;;4116229;28;20648;-77
2021/07/21 09:35:04;;;;;;;10.80;6.00;;;21.00;97.80;;;;;;4120881;28;20243;-78
2021/07/21 09:37:08;;;;;;;10.53;6.33;;;20.90;98.00;;;;;;4124726;28;20216;-76
2021/07/21 09:39:11;;;;;;;9.70;5.80;;;20.90;98.00;;;;;;4107292;28;20216;-77
2021/07/21 09:41:15;;;;;;;10.67;6.43;;;21.00;98.00;;;;;;4105375;28;20266;-77
2021/07/21 09:43:18;;;;;;;7.90;5.80;;;21.10;97.60;;;;;;4115083;28;20277;-76
2021/07/21 09:45:20;;;;;;;8.97;6.10;;;21.20;97.80;;;;;;4124790;28;20228;-77
2021/07/21 09:47:23;;;;;;;9.17;6.00;;;21.30;97.70;;;;;;4112546;28;20631;-77
2021/07/21 09:49:25;;;;;;;9.97;6.07;;;21.40;97.40;;;;;;4099726;29;20214;-77
2021/07/21 09:51:29;;;;;;;11.13;6.10;;;21.50;97.50;;;;;;4099820;29;20218;-76
2021/07/21 09:53:40;;;;;;;9.23;6.13;;;21.60;97.20;;;;;;4101189;29;20222;-76
2021/07/21 09:55:45;;;;;;;10.80;6.37;;;21.70;97.20;;;;;;4115074;28;20208;-78
2021/07/21 09:58:02;;;;;;;9.93;6.40;;;21.70;96.60;;;;;;4122885;28;20221;-76
2021/07/21 10:00:18;;;;;;;9.37;6.10;;;21.80;96.20;;;;;;4117262;28;20229;-77
2021/07/21 10:02:22;;;;;;;10.77;6.73;;;21.90;95.70;;;;;;4119749;28;20292;-77
2021/07/21 10:04:38;;;;;;;10.40;6.50;;;21.90;95.40;;;;;;4115646;28;20228;-77
2021/07/21 10:06:40;;;;;;;10.73;6.77;;;21.90;95.20;;;;;;4115174;28;20209;-77
2021/07/21 10:08:44;;;;;;;10.83;6.93;;;21.70;95.80;;;;;;4120198;28;20220;-77
2021/07/21 10:10:46;;;;;;;12.00;7.60;;;21.70;95.80;;;;;;4135262;28;20240;-77
2021/07/21 10:12:59;;;;;;;10.23;6.27;;;21.70;96.00;;;;;;4133915;28;20252;-77
2021/07/21 10:15:01;;;;;;;12.60;7.10;;;21.70;96.00;;;;;;4141034;28;20208;-78
2021/07/21 10:17:03;;;;;;;10.70;6.80;;;21.70;96.00;;;;;;4141795;28;20210;-76
2021/07/21 10:19:07;;;;;;;11.40;7.27;;;21.60;96.00;;;;;;4130493;28;20218;-77
2021/07/21 10:21:09;;;;;;;11.50;7.37;;;21.50;96.30;;;;;;4116078;28;20562;-78
2021/07/21 10:23:14;;;;;;;13.13;7.80;;;21.40;96.80;;;;;;4141120;28;20229;-77
2021/07/21 10:25:15;;;;;;;11.03;7.50;;;21.30;97.10;;;;;;4143119;28;20223;-76
2021/07/21 10:27:20;;;;;;;11.90;7.23;;;21.50;97.20;;;;;;4124974;28;20221;-77
2021/07/21 10:29:22;;;;;;;12.83;7.47;;;21.50;96.90;;;;;;4118483;28;20224;-77
2021/07/21 10:31:25;;;;;;;10.80;6.83;;;21.40;96.40;;;;;;4116992;28;20749;-77
2021/07/21 10:33:27;;;;;;;11.40;7.20;;;21.40;96.50;;;;;;4126165;28;20252;-77
2021/07/21 10:35:30;;;;;;;13.83;7.50;;;21.40;95.90;;;;;;4112927;28;20265;-77
2021/07/21 10:37:32;;;;;;;10.43;6.87;;;21.50;96.20;;;;;;4106926;28;20244;-76
2021/07/21 10:39:36;;;;;;;13.17;7.90;;;21.50;96.00;;;;;;4130419;28;20662;-76
2021/07/21 10:41:39;;;;;;;9.03;6.50;;;21.50;95.60;;;;;;4132249;28;20642;-77